sensor_id;sensor_type;location;lat;lon;timestamp;P1;durP1;ratioP1;P2;durP2;ratioP2
13173;SDS011;6652;48.802;9.190;2024-01-16T00:00:57;8.80;;;3.40;;
13173;SDS011;6652;48.802;9.190;2024-01-16T00:03:24;8.38;;;3.40;;
13173;SDS011;6652;48.802;9.190;2024-01-16T00:05:51;7.43;;;3.42;;
13173;SDS011;6652;48.802;9.190;2024-01-16T00:08:18;9.10;;;4.25;;
13173;SDS011;6652;48.802;9.190;2024-01-16T00:10:45;10.30;;;3.67;;
13173;SDS011;6652;48.802;9.190;2024-01-16T00:13:14;9.85;;;3.80;;
13173;SDS011;6652;48.802;9.190;2024-01-16T00:15:40;10.27;;;4.10;;
13173;SDS011;6652;48.802;9.190;2024-01-16T00:18:07;9.73;;;4.60;;
13173;SDS011;6652;48.802;9.190;2024-01-16T00:20:34;13.52;;;4.80;;
13173;SDS011;6652;48.802;9.190;2024-01-16T00:23:01;9.57;;;4.10;;
13173;SDS011;6652;48.802;9.190;2024-01-16T00:25:28;8.63;;;3.67;;
13173;SDS011;6652;48.802;9.190;2024-01-16T00:27:55;10.13;;;4.28;;
13173;SDS011;6652;48.802;9.190;2024-01-16T00:30:23;11.18;;;4.05;;
13173;SDS011;6652;48.802;9.190;2024-01-16T00:32:50;9.65;;;4.35;;
13173;SDS011;6652;48.802;9.190;2024-01-16T00:35:17;10.35;;;4.10;;
13173;SDS011;6652;48.802;9.190;2024-01-16T00:37:44;12.10;;;4.70;;
13173;SDS011;6652;48.802;9.190;2024-01-16T00:40:11;12.57;;;4.05;;
13173;SDS011;6652;48.802;9.190;2024-01-16T00:42:38;10.02;;;4.47;;
13173;SDS011;6652;48.802;9.190;2024-01-16T00:45:05;8.77;;;4.00;;
13173;SDS011;6652;48.802;9.190;2024-01-16T00:47:34;9.95;;;4.57;;
13173;SDS011;6652;48.802;9.190;2024-01-16T00:50:00;9.18;;;3.63;;
13173;SDS011;6652;48.802;9.190;2024-01-16T00:52:27;13.85;;;4.10;;
13173;SDS011;6652;48.802;9.190;2024-01-16T00:54:54;14.20;;;4.13;;
13173;SDS011;6652;48.802;9.190;2024-01-16T00:57:21;9.07;;;4.00;;
13173;SDS011;6652;48.802;9.190;2024-01-16T00:59:48;8.75;;;4.03;;
13173;SDS011;6652;48.802;9.190;2024-01-16T01:02:15;11.05;;;4.07;;
13173;SDS011;6652;48.802;9.190;2024-01-16T01:04:43;13.50;;;4.22;;
13173;SDS011;6652;48.802;9.190;2024-01-16T01:07:12;11.32;;;4.22;;
13173;SDS011;6652;48.802;9.190;2024-01-16T01:09:40;10.38;;;3.85;;
13173;SDS011;6652;48.802;9.190;2024-01-16T01:12:07;10.55;;;3.88;;
13173;SDS011;6652;48.802;9.190;2024-01-16T01:14:34;9.10;;;4.18;;
13173;SDS011;6652;48.802;9.190;2024-01-16T01:17:01;10.52;;;4.35;;
13173;SDS011;6652;48.802;9.190;2024-01-16T01:19:29;10.93;;;4.40;;
13173;SDS011;6652;48.802;9.190;2024-01-16T01:21:57;6.95;;;3.75;;
13173;SDS011;6652;48.802;9.190;2024-01-16T01:24:24;10.48;;;4.28;;
13173;SDS011;6652;48.802;9.190;2024-01-16T01:26:50;8.68;;;3.90;;
13173;SDS011;6652;48.802;9.190;2024-01-16T01:29:17;10.13;;;3.92;;
13173;SDS011;6652;48.802;9.190;2024-01-16T01:31:45;7.57;;;4.18;;
13173;SDS011;6652;48.802;9.190;2024-01-16T01:34:13;12.27;;;4.18;;
13173;SDS011;6652;48.802;9.190;2024-01-16T01:36:39;11.27;;;4.25;;
13173;SDS011;6652;48.802;9.190;2024-01-16T01:39:09;9.80;;;3.63;;
13173;SDS011;6652;48.802;9.190;2024-01-16T01:41:37;8.90;;;3.75;;
13173;SDS011;6652;48.802;9.190;2024-01-16T01:44:04;10.02;;;4.10;;
13173;SDS011;6652;48.802;9.190;2024-01-16T01:46:31;14.40;;;4.50;;
13173;SDS011;6652;48.802;9.190;2024-01-16T01:49:00;11.10;;;4.32;;
13173;SDS011;6652;48.802;9.190;2024-01-16T01:51:28;9.82;;;4.25;;
13173;SDS011;6652;48.802;9.190;2024-01-16T01:53:55;6.65;;;3.80;;
13173;SDS011;6652;48.802;9.190;2024-01-16T01:56:25;9.38;;;4.30;;
13173;SDS011;6652;48.802;9.190;2024-01-16T01:58:53;9.90;;;4.53;;
13173;SDS011;6652;48.802;9.190;2024-01-16T02:01:22;8.93;;;4.57;;
13173;SDS011;6652;48.802;9.190;2024-01-16T02:03:50;12.48;;;4.45;;
13173;SDS011;6652;48.802;9.190;2024-01-16T02:06:18;8.73;;;4.13;;
13173;SDS011;6652;48.802;9.190;2024-01-16T02:08:45;9.05;;;4.55;;
13173;SDS011;6652;48.802;9.190;2024-01-16T02:11:12;10.60;;;4.75;;
13173;SDS011;6652;48.802;9.190;2024-01-16T02:13:40;12.13;;;4.13;;
13173;SDS011;6652;48.802;9.190;2024-01-16T02:16:16;11.65;;;4.13;;
13173;SDS011;6652;48.802;9.190;2024-01-16T02:18:44;10.32;;;3.95;;
13173;SDS011;6652;48.802;9.190;2024-01-16T02:21:11;9.10;;;4.20;;
13173;SDS011;6652;48.802;9.190;2024-01-16T02:23:43;11.50;;;4.53;;
13173;SDS011;6652;48.802;9.190;2024-01-16T02:26:10;7.43;;;4.10;;
13173;SDS011;6652;48.802;9.190;2024-01-16T02:28:37;11.30;;;4.03;;
13173;SDS011;6652;48.802;9.190;2024-01-16T02:31:04;9.90;;;4.10;;
13173;SDS011;6652;48.802;9.190;2024-01-16T02:33:31;10.65;;;3.88;;
13173;SDS011;6652;48.802;9.190;2024-01-16T02:35:58;11.68;;;4.90;;
13173;SDS011;6652;48.802;9.190;2024-01-16T02:38:25;9.90;;;4.07;;
13173;SDS011;6652;48.802;9.190;2024-01-16T02:40:53;15.70;;;3.83;;
13173;SDS011;6652;48.802;9.190;2024-01-16T02:43:20;11.75;;;4.40;;
13173;SDS011;6652;48.802;9.190;2024-01-16T02:45:48;12.00;;;4.30;;
13173;SDS011;6652;48.802;9.190;2024-01-16T02:48:15;8.63;;;4.20;;
13173;SDS011;6652;48.802;9.190;2024-01-16T02:50:41;10.98;;;4.70;;
13173;SDS011;6652;48.802;9.190;2024-01-16T02:53:08;11.75;;;4.97;;
13173;SDS011;6652;48.802;9.190;2024-01-16T02:55:35;10.05;;;4.95;;
13173;SDS011;6652;48.802;9.190;2024-01-16T02:58:03;11.70;;;4.93;;
13173;SDS011;6652;48.802;9.190;2024-01-16T03:00:30;11.00;;;4.75;;
13173;SDS011;6652;48.802;9.190;2024-01-16T03:02:57;15.43;;;5.15;;
13173;SDS011;6652;48.802;9.190;2024-01-16T03:05:24;11.00;;;4.43;;
13173;SDS011;6652;48.802;9.190;2024-01-16T03:07:51;10.77;;;4.15;;
13173;SDS011;6652;48.802;9.190;2024-01-16T03:10:24;11.65;;;4.70;;
13173;SDS011;6652;48.802;9.190;2024-01-16T03:12:51;9.07;;;4.00;;
13173;SDS011;6652;48.802;9.190;2024-01-16T03:15:19;11.07;;;4.22;;
13173;SDS011;6652;48.802;9.190;2024-01-16T03:17:47;11.80;;;4.45;;
13173;SDS011;6652;48.802;9.190;2024-01-16T03:20:14;13.10;;;4.93;;
13173;SDS011;6652;48.802;9.190;2024-01-16T03:22:41;10.38;;;4.32;;
13173;SDS011;6652;48.802;9.190;2024-01-16T03:25:08;7.93;;;4.05;;
13173;SDS011;6652;48.802;9.190;2024-01-16T03:27:35;10.93;;;5.00;;
13173;SDS011;6652;48.802;9.190;2024-01-16T03:30:02;11.48;;;4.45;;
13173;SDS011;6652;48.802;9.190;2024-01-16T03:32:32;8.57;;;3.83;;
13173;SDS011;6652;48.802;9.190;2024-01-16T03:34:59;10.80;;;4.47;;
13173;SDS011;6652;48.802;9.190;2024-01-16T03:37:26;10.98;;;4.28;;
13173;SDS011;6652;48.802;9.190;2024-01-16T03:39:53;13.00;;;5.25;;
13173;SDS011;6652;48.802;9.190;2024-01-16T03:42:20;12.57;;;4.40;;
13173;SDS011;6652;48.802;9.190;2024-01-16T03:44:46;8.32;;;4.35;;
13173;SDS011;6652;48.802;9.190;2024-01-16T03:47:14;9.02;;;4.13;;
13173;SDS011;6652;48.802;9.190;2024-01-16T03:49:42;12.60;;;3.80;;
13173;SDS011;6652;48.802;9.190;2024-01-16T03:52:09;11.30;;;4.53;;
13173;SDS011;6652;48.802;9.190;2024-01-16T03:54:36;9.13;;;4.15;;
13173;SDS011;6652;48.802;9.190;2024-01-16T03:57:03;12.50;;;4.65;;
13173;SDS011;6652;48.802;9.190;2024-01-16T03:59:30;12.10;;;4.53;;
13173;SDS011;6652;48.802;9.190;2024-01-16T04:01:57;11.02;;;4.40;;
13173;SDS011;6652;48.802;9.190;2024-01-16T04:04:24;11.18;;;4.18;;
13173;SDS011;6652;48.802;9.190;2024-01-16T04:06:52;9.38;;;4.45;;
13173;SDS011;6652;48.802;9.190;2024-01-16T04:09:19;9.45;;;3.80;;
13173;SDS011;6652;48.802;9.190;2024-01-16T04:11:49;10.68;;;4.20;;
13173;SDS011;6652;48.802;9.190;2024-01-16T04:14:16;17.38;;;4.70;;
13173;SDS011;6652;48.802;9.190;2024-01-16T04:16:43;9.35;;;4.15;;
13173;SDS011;6652;48.802;9.190;2024-01-16T04:19:10;13.55;;;4.53;;
13173;SDS011;6652;48.802;9.190;2024-01-16T04:21:37;8.00;;;3.78;;
13173;SDS011;6652;48.802;9.190;2024-01-16T04:24:05;12.27;;;4.40;;
13173;SDS011;6652;48.802;9.190;2024-01-16T04:26:35;11.77;;;3.80;;
13173;SDS011;6652;48.802;9.190;2024-01-16T04:29:02;12.68;;;4.47;;
13173;SDS011;6652;48.802;9.190;2024-01-16T04:31:29;11.77;;;4.32;;
13173;SDS011;6652;48.802;9.190;2024-01-16T04:33:56;12.50;;;4.18;;
13173;SDS011;6652;48.802;9.190;2024-01-16T04:36:23;10.68;;;4.63;;
13173;SDS011;6652;48.802;9.190;2024-01-16T04:38:50;8.02;;;4.20;;
13173;SDS011;6652;48.802;9.190;2024-01-16T04:41:19;10.32;;;4.00;;
13173;SDS011;6652;48.802;9.190;2024-01-16T04:43:45;10.85;;;4.55;;
13173;SDS011;6652;48.802;9.190;2024-01-16T04:46:13;9.68;;;4.35;;
13173;SDS011;6652;48.802;9.190;2024-01-16T04:48:40;8.73;;;3.72;;
13173;SDS011;6652;48.802;9.190;2024-01-16T04:51:07;13.73;;;4.53;;
13173;SDS011;6652;48.802;9.190;2024-01-16T04:53:34;14.40;;;4.63;;
13173;SDS011;6652;48.802;9.190;2024-01-16T04:56:01;13.10;;;4.13;;
13173;SDS011;6652;48.802;9.190;2024-01-16T04:58:29;12.65;;;4.13;;
13173;SDS011;6652;48.802;9.190;2024-01-16T05:00:56;11.80;;;5.15;;
13173;SDS011;6652;48.802;9.190;2024-01-16T05:03:23;7.85;;;3.78;;
13173;SDS011;6652;48.802;9.190;2024-01-16T05:05:50;10.32;;;4.00;;
13173;SDS011;6652;48.802;9.190;2024-01-16T05:08:17;6.00;;;3.63;;
13173;SDS011;6652;48.802;9.190;2024-01-16T05:10:44;8.27;;;3.47;;
13173;SDS011;6652;48.802;9.190;2024-01-16T05:13:11;10.15;;;4.10;;
13173;SDS011;6652;48.802;9.190;2024-01-16T05:15:40;9.55;;;4.13;;
13173;SDS011;6652;48.802;9.190;2024-01-16T05:18:07;11.48;;;4.30;;
13173;SDS011;6652;48.802;9.190;2024-01-16T05:20:34;16.58;;;4.38;;
13173;SDS011;6652;48.802;9.190;2024-01-16T05:23:01;11.13;;;4.07;;
13173;SDS011;6652;48.802;9.190;2024-01-16T05:25:28;8.20;;;3.70;;
13173;SDS011;6652;48.802;9.190;2024-01-16T05:27:55;9.60;;;3.75;;
13173;SDS011;6652;48.802;9.190;2024-01-16T05:33:43;9.57;;;4.10;;
13173;SDS011;6652;48.802;9.190;2024-01-16T05:36:10;10.07;;;4.10;;
13173;SDS011;6652;48.802;9.190;2024-01-16T05:38:37;10.63;;;4.45;;
13173;SDS011;6652;48.802;9.190;2024-01-16T05:41:04;9.93;;;4.25;;
13173;SDS011;6652;48.802;9.190;2024-01-16T05:43:31;8.73;;;4.07;;
13173;SDS011;6652;48.802;9.190;2024-01-16T05:45:58;9.32;;;4.53;;
13173;SDS011;6652;48.802;9.190;2024-01-16T05:48:25;8.75;;;4.47;;
13173;SDS011;6652;48.802;9.190;2024-01-16T05:50:54;15.27;;;4.60;;
13173;SDS011;6652;48.802;9.190;2024-01-16T05:53:21;11.93;;;4.53;;
13173;SDS011;6652;48.802;9.190;2024-01-16T05:55:47;7.07;;;3.53;;
13173;SDS011;6652;48.802;9.190;2024-01-16T05:58:14;11.23;;;4.65;;
13173;SDS011;6652;48.802;9.190;2024-01-16T06:00:41;7.70;;;3.50;;
13173;SDS011;6652;48.802;9.190;2024-01-16T06:03:09;10.23;;;4.03;;
13173;SDS011;6652;48.802;9.190;2024-01-16T06:05:36;10.77;;;4.63;;
13173;SDS011;6652;48.802;9.190;2024-01-16T06:08:04;9.82;;;4.53;;
13173;SDS011;6652;48.802;9.190;2024-01-16T06:10:32;9.20;;;3.83;;
13173;SDS011;6652;48.802;9.190;2024-01-16T06:12:59;8.63;;;4.18;;
13173;SDS011;6652;48.802;9.190;2024-01-16T06:15:25;10.50;;;4.43;;
13173;SDS011;6652;48.802;9.190;2024-01-16T06:17:52;18.05;;;4.25;;
13173;SDS011;6652;48.802;9.190;2024-01-16T06:20:19;12.60;;;4.18;;
13173;SDS011;6652;48.802;9.190;2024-01-16T06:22:49;8.45;;;4.03;;
13173;SDS011;6652;48.802;9.190;2024-01-16T06:25:17;11.95;;;3.92;;
13173;SDS011;6652;48.802;9.190;2024-01-16T06:27:44;15.90;;;5.10;;
13173;SDS011;6652;48.802;9.190;2024-01-16T06:30:11;10.48;;;4.40;;
13173;SDS011;6652;48.802;9.190;2024-01-16T06:32:38;11.13;;;4.40;;
13173;SDS011;6652;48.802;9.190;2024-01-16T06:35:05;10.20;;;4.75;;
13173;SDS011;6652;48.802;9.190;2024-01-16T06:37:32;12.27;;;4.60;;
13173;SDS011;6652;48.802;9.190;2024-01-16T06:39:59;7.93;;;3.58;;
13173;SDS011;6652;48.802;9.190;2024-01-16T06:42:27;12.80;;;4.35;;
13173;SDS011;6652;48.802;9.190;2024-01-16T06:44:54;12.30;;;4.45;;
13173;SDS011;6652;48.802;9.190;2024-01-16T06:47:21;11.55;;;4.45;;
13173;SDS011;6652;48.802;9.190;2024-01-16T06:49:48;9.23;;;4.07;;
13173;SDS011;6652;48.802;9.190;2024-01-16T06:52:15;10.25;;;4.25;;
13173;SDS011;6652;48.802;9.190;2024-01-16T06:54:42;9.75;;;4.15;;
13173;SDS011;6652;48.802;9.190;2024-01-16T06:57:10;8.90;;;4.13;;
13173;SDS011;6652;48.802;9.190;2024-01-16T06:59:38;9.90;;;4.47;;
13173;SDS011;6652;48.802;9.190;2024-01-16T07:02:05;8.32;;;3.67;;
13173;SDS011;6652;48.802;9.190;2024-01-16T07:04:33;12.65;;;4.20;;
13173;SDS011;6652;48.802;9.190;2024-01-16T07:06:59;10.10;;;4.32;;
13173;SDS011;6652;48.802;9.190;2024-01-16T07:09:26;10.85;;;3.95;;
13173;SDS011;6652;48.802;9.190;2024-01-16T07:11:53;10.18;;;4.05;;
13173;SDS011;6652;48.802;9.190;2024-01-16T07:14:20;8.57;;;3.63;;
13173;SDS011;6652;48.802;9.190;2024-01-16T07:16:48;11.35;;;4.15;;
13173;SDS011;6652;48.802;9.190;2024-01-16T07:19:15;9.90;;;3.40;;
13173;SDS011;6652;48.802;9.190;2024-01-16T07:21:42;9.60;;;4.10;;
13173;SDS011;6652;48.802;9.190;2024-01-16T07:24:09;17.27;;;4.40;;
13173;SDS011;6652;48.802;9.190;2024-01-16T07:26:37;7.90;;;3.75;;
13173;SDS011;6652;48.802;9.190;2024-01-16T07:29:06;14.35;;;4.13;;
13173;SDS011;6652;48.802;9.190;2024-01-16T07:31:34;7.97;;;3.70;;
13173;SDS011;6652;48.802;9.190;2024-01-16T07:34:02;12.20;;;4.28;;
13173;SDS011;6652;48.802;9.190;2024-01-16T07:36:29;12.13;;;3.38;;
13173;SDS011;6652;48.802;9.190;2024-01-16T07:38:57;7.57;;;3.40;;
13173;SDS011;6652;48.802;9.190;2024-01-16T07:41:25;15.05;;;3.90;;
13173;SDS011;6652;48.802;9.190;2024-01-16T07:43:52;12.38;;;3.83;;
13173;SDS011;6652;48.802;9.190;2024-01-16T07:46:19;9.23;;;3.90;;
13173;SDS011;6652;48.802;9.190;2024-01-16T07:48:46;9.40;;;3.55;;
13173;SDS011;6652;48.802;9.190;2024-01-16T07:51:14;9.88;;;3.80;;
13173;SDS011;6652;48.802;9.190;2024-01-16T07:53:44;11.57;;;3.78;;
13173;SDS011;6652;48.802;9.190;2024-01-16T07:56:18;7.70;;;3.30;;
13173;SDS011;6652;48.802;9.190;2024-01-16T07:58:47;11.07;;;4.03;;
13173;SDS011;6652;48.802;9.190;2024-01-16T08:01:17;9.52;;;4.32;;
13173;SDS011;6652;48.802;9.190;2024-01-16T08:03:46;11.38;;;3.40;;
13173;SDS011;6652;48.802;9.190;2024-01-16T08:06:14;11.05;;;3.38;;
13173;SDS011;6652;48.802;9.190;2024-01-16T08:08:42;12.18;;;3.88;;
13173;SDS011;6652;48.802;9.190;2024-01-16T08:11:09;10.55;;;3.50;;
13173;SDS011;6652;48.802;9.190;2024-01-16T08:13:36;5.85;;;3.28;;
13173;SDS011;6652;48.802;9.190;2024-01-16T08:16:03;12.05;;;4.05;;
13173;SDS011;6652;48.802;9.190;2024-01-16T08:18:32;11.32;;;4.05;;
13173;SDS011;6652;48.802;9.190;2024-01-16T08:20:59;11.27;;;3.78;;
13173;SDS011;6652;48.802;9.190;2024-01-16T08:23:28;11.18;;;4.25;;
13173;SDS011;6652;48.802;9.190;2024-01-16T08:25:55;8.25;;;3.45;;
13173;SDS011;6652;48.802;9.190;2024-01-16T08:28:22;9.73;;;3.67;;
13173;SDS011;6652;48.802;9.190;2024-01-16T08:30:49;8.15;;;3.03;;
13173;SDS011;6652;48.802;9.190;2024-01-16T08:33:16;8.68;;;3.55;;
13173;SDS011;6652;48.802;9.190;2024-01-16T08:35:43;16.00;;;3.55;;
13173;SDS011;6652;48.802;9.190;2024-01-16T08:38:10;11.23;;;3.70;;
13173;SDS011;6652;48.802;9.190;2024-01-16T08:40:38;11.23;;;3.35;;
13173;SDS011;6652;48.802;9.190;2024-01-16T08:43:05;8.70;;;3.25;;
13173;SDS011;6652;48.802;9.190;2024-01-16T08:45:34;8.50;;;3.30;;
13173;SDS011;6652;48.802;9.190;2024-01-16T08:48:01;13.57;;;3.80;;
13173;SDS011;6652;48.802;9.190;2024-01-16T08:50:28;13.38;;;2.90;;
13173;SDS011;6652;48.802;9.190;2024-01-16T08:52:55;13.25;;;4.32;;
13173;SDS011;6652;48.802;9.190;2024-01-16T08:55:22;7.82;;;3.28;;
13173;SDS011;6652;48.802;9.190;2024-01-16T08:57:50;8.88;;;3.28;;
13173;SDS011;6652;48.802;9.190;2024-01-16T09:00:17;12.90;;;3.15;;
13173;SDS011;6652;48.802;9.190;2024-01-16T09:02:44;7.70;;;2.45;;
13173;SDS011;6652;48.802;9.190;2024-01-16T09:05:11;7.50;;;2.97;;
13173;SDS011;6652;48.802;9.190;2024-01-16T09:07:38;8.63;;;2.92;;
13173;SDS011;6652;48.802;9.190;2024-01-16T09:10:05;10.15;;;3.00;;
13173;SDS011;6652;48.802;9.190;2024-01-16T09:12:33;7.97;;;2.78;;
13173;SDS011;6652;48.802;9.190;2024-01-16T09:15:01;6.93;;;3.10;;
13173;SDS011;6652;48.802;9.190;2024-01-16T09:17:28;4.97;;;2.47;;
13173;SDS011;6652;48.802;9.190;2024-01-16T09:19:55;6.90;;;2.78;;
13173;SDS011;6652;48.802;9.190;2024-01-16T09:22:21;7.72;;;3.25;;
13173;SDS011;6652;48.802;9.190;2024-01-16T09:24:48;8.32;;;3.17;;
13173;SDS011;6652;48.802;9.190;2024-01-16T09:27:15;4.75;;;3.00;;
13173;SDS011;6652;48.802;9.190;2024-01-16T09:29:42;6.90;;;2.38;;
13173;SDS011;6652;48.802;9.190;2024-01-16T09:32:10;8.48;;;3.67;;
13173;SDS011;6652;48.802;9.190;2024-01-16T09:34:37;9.75;;;2.85;;
13173;SDS011;6652;48.802;9.190;2024-01-16T09:37:04;6.72;;;2.65;;
13173;SDS011;6652;48.802;9.190;2024-01-16T09:39:31;6.30;;;2.88;;
13173;SDS011;6652;48.802;9.190;2024-01-16T09:41:59;6.25;;;2.58;;
13173;SDS011;6652;48.802;9.190;2024-01-16T09:44:27;4.35;;;2.40;;
13173;SDS011;6652;48.802;9.190;2024-01-16T09:46:54;6.82;;;3.13;;
13173;SDS011;6652;48.802;9.190;2024-01-16T09:49:23;5.97;;;2.50;;
13173;SDS011;6652;48.802;9.190;2024-01-16T09:51:50;6.45;;;2.60;;
13173;SDS011;6652;48.802;9.190;2024-01-16T09:54:17;16.60;;;2.65;;
13173;SDS011;6652;48.802;9.190;2024-01-16T09:56:44;13.13;;;3.20;;
13173;SDS011;6652;48.802;9.190;2024-01-16T09:59:17;10.95;;;3.42;;
13173;SDS011;6652;48.802;9.190;2024-01-16T10:01:44;13.77;;;3.47;;
13173;SDS011;6652;48.802;9.190;2024-01-16T10:04:11;16.52;;;3.97;;
13173;SDS011;6652;48.802;9.190;2024-01-16T10:06:40;19.67;;;3.50;;
13173;SDS011;6652;48.802;9.190;2024-01-16T10:09:11;17.85;;;3.55;;
13173;SDS011;6652;48.802;9.190;2024-01-16T10:11:38;11.10;;;3.33;;
13173;SDS011;6652;48.802;9.190;2024-01-16T10:14:06;10.88;;;3.38;;
13173;SDS011;6652;48.802;9.190;2024-01-16T10:19:28;8.68;;;2.70;;
13173;SDS011;6652;48.802;9.190;2024-01-16T10:22:02;8.25;;;2.85;;
13173;SDS011;6652;48.802;9.190;2024-01-16T10:24:29;9.65;;;3.25;;
13173;SDS011;6652;48.802;9.190;2024-01-16T10:26:58;10.77;;;3.17;;
13173;SDS011;6652;48.802;9.190;2024-01-16T10:29:27;10.75;;;3.22;;
13173;SDS011;6652;48.802;9.190;2024-01-16T10:31:56;11.35;;;3.47;;
13173;SDS011;6652;48.802;9.190;2024-01-16T10:34:23;21.20;;;3.83;;
13173;SDS011;6652;48.802;9.190;2024-01-16T10:36:50;9.82;;;3.55;;
13173;SDS011;6652;48.802;9.190;2024-01-16T10:39:19;19.25;;;4.13;;
13173;SDS011;6652;48.802;9.190;2024-01-16T10:41:56;13.05;;;3.67;;
13173;SDS011;6652;48.802;9.190;2024-01-16T10:44:24;12.48;;;3.90;;
13173;SDS011;6652;48.802;9.190;2024-01-16T10:46:52;10.55;;;3.88;;
13173;SDS011;6652;48.802;9.190;2024-01-16T10:49:35;15.40;;;3.40;;
13173;SDS011;6652;48.802;9.190;2024-01-16T10:52:03;10.60;;;3.42;;
13173;SDS011;6652;48.802;9.190;2024-01-16T10:54:34;9.32;;;3.65;;
13173;SDS011;6652;48.802;9.190;2024-01-16T10:57:03;13.48;;;3.67;;
13173;SDS011;6652;48.802;9.190;2024-01-16T10:59:31;11.25;;;3.75;;
13173;SDS011;6652;48.802;9.190;2024-01-16T11:02:06;11.70;;;3.50;;
13173;SDS011;6652;48.802;9.190;2024-01-16T11:04:39;21.92;;;5.30;;
13173;SDS011;6652;48.802;9.190;2024-01-16T11:07:08;9.85;;;4.30;;
13173;SDS011;6652;48.802;9.190;2024-01-16T11:09:36;18.42;;;4.65;;
13173;SDS011;6652;48.802;9.190;2024-01-16T11:12:05;16.45;;;3.90;;
13173;SDS011;6652;48.802;9.190;2024-01-16T11:14:32;15.70;;;4.22;;
13173;SDS011;6652;48.802;9.190;2024-01-16T11:17:00;10.02;;;3.35;;
13173;SDS011;6652;48.802;9.190;2024-01-16T11:19:30;11.77;;;3.85;;
13173;SDS011;6652;48.802;9.190;2024-01-16T11:21:58;11.57;;;4.00;;
13173;SDS011;6652;48.802;9.190;2024-01-16T11:24:26;11.35;;;3.47;;
13173;SDS011;6652;48.802;9.190;2024-01-16T11:26:54;7.53;;;3.08;;
13173;SDS011;6652;48.802;9.190;2024-01-16T11:29:33;9.38;;;3.50;;
13173;SDS011;6652;48.802;9.190;2024-01-16T11:32:01;9.25;;;3.83;;
13173;SDS011;6652;48.802;9.190;2024-01-16T11:37:25;11.75;;;3.67;;
13173;SDS011;6652;48.802;9.190;2024-01-16T11:40:06;12.60;;;4.10;;
13173;SDS011;6652;48.802;9.190;2024-01-16T11:42:52;12.40;;;3.90;;
13173;SDS011;6652;48.802;9.190;2024-01-16T11:48:15;13.13;;;3.53;;
13173;SDS011;6652;48.802;9.190;2024-01-16T11:50:43;14.55;;;3.83;;
13173;SDS011;6652;48.802;9.190;2024-01-16T11:53:10;9.25;;;3.92;;
13173;SDS011;6652;48.802;9.190;2024-01-16T11:55:41;12.85;;;3.70;;
13173;SDS011;6652;48.802;9.190;2024-01-16T11:58:26;12.98;;;3.08;;
13173;SDS011;6652;48.802;9.190;2024-01-16T12:01:07;7.53;;;2.90;;
13173;SDS011;6652;48.802;9.190;2024-01-16T12:03:37;6.55;;;2.83;;
13173;SDS011;6652;48.802;9.190;2024-01-16T12:06:04;7.80;;;3.03;;
13173;SDS011;6652;48.802;9.190;2024-01-16T12:08:33;12.98;;;3.42;;
13173;SDS011;6652;48.802;9.190;2024-01-16T12:11:03;19.13;;;4.05;;
13173;SDS011;6652;48.802;9.190;2024-01-16T12:13:30;10.20;;;3.38;;
13173;SDS011;6652;48.802;9.190;2024-01-16T12:16:01;9.30;;;3.35;;
13173;SDS011;6652;48.802;9.190;2024-01-16T12:18:30;6.38;;;1.95;;
13173;SDS011;6652;48.802;9.190;2024-01-16T12:20:56;10.80;;;3.00;;
13173;SDS011;6652;48.802;9.190;2024-01-16T12:23:26;6.68;;;3.00;;
13173;SDS011;6652;48.802;9.190;2024-01-16T12:25:53;9.35;;;3.63;;
13173;SDS011;6652;48.802;9.190;2024-01-16T12:28:21;6.88;;;2.17;;
13173;SDS011;6652;48.802;9.190;2024-01-16T12:30:50;5.03;;;1.85;;
13173;SDS011;6652;48.802;9.190;2024-01-16T12:33:20;6.22;;;1.75;;
13173;SDS011;6652;48.802;9.190;2024-01-16T12:35:48;7.95;;;1.52;;
13173;SDS011;6652;48.802;9.190;2024-01-16T12:38:15;3.47;;;1.02;;
13173;SDS011;6652;48.802;9.190;2024-01-16T12:40:44;3.45;;;1.00;;
13173;SDS011;6652;48.802;9.190;2024-01-16T12:43:13;8.52;;;1.48;;
13173;SDS011;6652;48.802;9.190;2024-01-16T12:45:43;6.93;;;1.52;;
13173;SDS011;6652;48.802;9.190;2024-01-16T12:48:12;10.30;;;2.05;;
13173;SDS011;6652;48.802;9.190;2024-01-16T12:50:39;7.97;;;2.00;;
13173;SDS011;6652;48.802;9.190;2024-01-16T12:53:08;5.50;;;1.77;;
13173;SDS011;6652;48.802;9.190;2024-01-16T12:55:36;10.73;;;1.92;;
13173;SDS011;6652;48.802;9.190;2024-01-16T12:58:16;3.60;;;1.23;;
13173;SDS011;6652;48.802;9.190;2024-01-16T13:00:44;3.78;;;1.50;;
13173;SDS011;6652;48.802;9.190;2024-01-16T13:03:17;5.47;;;1.85;;
13173;SDS011;6652;48.802;9.190;2024-01-16T13:05:44;5.28;;;1.60;;
13173;SDS011;6652;48.802;9.190;2024-01-16T13:08:18;7.45;;;2.03;;
13173;SDS011;6652;48.802;9.190;2024-01-16T13:10:46;5.75;;;1.60;;
13173;SDS011;6652;48.802;9.190;2024-01-16T13:13:17;6.38;;;1.90;;
13173;SDS011;6652;48.802;9.190;2024-01-16T13:15:44;5.90;;;1.98;;
13173;SDS011;6652;48.802;9.190;2024-01-16T13:18:19;5.18;;;1.65;;
13173;SDS011;6652;48.802;9.190;2024-01-16T13:20:47;4.88;;;1.90;;
13173;SDS011;6652;48.802;9.190;2024-01-16T13:23:15;5.32;;;1.50;;
13173;SDS011;6652;48.802;9.190;2024-01-16T13:25:42;6.63;;;1.75;;
13173;SDS011;6652;48.802;9.190;2024-01-16T13:28:10;5.38;;;1.65;;
13173;SDS011;6652;48.802;9.190;2024-01-16T13:30:39;5.13;;;1.65;;
13173;SDS011;6652;48.802;9.190;2024-01-16T13:33:06;6.35;;;1.80;;
13173;SDS011;6652;48.802;9.190;2024-01-16T13:35:35;12.20;;;1.90;;
13173;SDS011;6652;48.802;9.190;2024-01-16T13:38:04;5.82;;;2.00;;
13173;SDS011;6652;48.802;9.190;2024-01-16T13:40:31;7.57;;;1.90;;
13173;SDS011;6652;48.802;9.190;2024-01-16T13:42:58;6.57;;;1.70;;
13173;SDS011;6652;48.802;9.190;2024-01-16T13:45:25;10.07;;;2.53;;
13173;SDS011;6652;48.802;9.190;2024-01-16T13:47:53;13.70;;;2.17;;
13173;SDS011;6652;48.802;9.190;2024-01-16T13:50:20;7.28;;;2.03;;
13173;SDS011;6652;48.802;9.190;2024-01-16T13:52:50;6.75;;;2.15;;
13173;SDS011;6652;48.802;9.190;2024-01-16T13:55:17;7.55;;;1.88;;
13173;SDS011;6652;48.802;9.190;2024-01-16T13:57:44;4.60;;;1.63;;
13173;SDS011;6652;48.802;9.190;2024-01-16T14:00:11;6.65;;;1.88;;
13173;SDS011;6652;48.802;9.190;2024-01-16T14:02:40;9.45;;;2.00;;
13173;SDS011;6652;48.802;9.190;2024-01-16T14:05:08;5.65;;;1.75;;
13173;SDS011;6652;48.802;9.190;2024-01-16T14:07:36;5.22;;;1.85;;
13173;SDS011;6652;48.802;9.190;2024-01-16T14:10:07;7.80;;;2.13;;
13173;SDS011;6652;48.802;9.190;2024-01-16T14:15:04;5.68;;;1.85;;
13173;SDS011;6652;48.802;9.190;2024-01-16T14:17:40;5.03;;;2.17;;
13173;SDS011;6652;48.802;9.190;2024-01-16T14:20:07;6.88;;;1.90;;
13173;SDS011;6652;48.802;9.190;2024-01-16T14:22:36;5.20;;;2.40;;
13173;SDS011;6652;48.802;9.190;2024-01-16T14:25:06;4.57;;;1.95;;
13173;SDS011;6652;48.802;9.190;2024-01-16T14:27:37;6.65;;;2.20;;
13173;SDS011;6652;48.802;9.190;2024-01-16T14:30:06;9.57;;;2.00;;
13173;SDS011;6652;48.802;9.190;2024-01-16T14:32:35;4.72;;;2.13;;
13173;SDS011;6652;48.802;9.190;2024-01-16T14:35:04;4.90;;;1.83;;
13173;SDS011;6652;48.802;9.190;2024-01-16T14:37:31;6.20;;;2.00;;
13173;SDS011;6652;48.802;9.190;2024-01-16T14:39:58;5.55;;;2.00;;
13173;SDS011;6652;48.802;9.190;2024-01-16T14:42:28;5.97;;;1.85;;
13173;SDS011;6652;48.802;9.190;2024-01-16T14:44:57;4.47;;;1.63;;
13173;SDS011;6652;48.802;9.190;2024-01-16T14:47:24;4.97;;;2.03;;
13173;SDS011;6652;48.802;9.190;2024-01-16T14:49:51;11.32;;;2.70;;
13173;SDS011;6652;48.802;9.190;2024-01-16T14:52:20;6.05;;;2.30;;
13173;SDS011;6652;48.802;9.190;2024-01-16T14:54:46;10.23;;;2.65;;
13173;SDS011;6652;48.802;9.190;2024-01-16T14:57:15;5.43;;;2.30;;
13173;SDS011;6652;48.802;9.190;2024-01-16T14:59:43;10.18;;;2.67;;
13173;SDS011;6652;48.802;9.190;2024-01-16T15:02:10;9.85;;;2.15;;
13173;SDS011;6652;48.802;9.190;2024-01-16T15:04:38;4.05;;;1.55;;
13173;SDS011;6652;48.802;9.190;2024-01-16T15:07:06;7.97;;;1.92;;
13173;SDS011;6652;48.802;9.190;2024-01-16T15:09:33;7.20;;;1.70;;
13173;SDS011;6652;48.802;9.190;2024-01-16T15:12:03;6.60;;;1.85;;
13173;SDS011;6652;48.802;9.190;2024-01-16T15:14:30;3.92;;;1.75;;